createdAt,value
2023-03-06T00:01:03.033Z,2.30
2023-03-06T00:03:30.465Z,2.30
2023-03-06T00:05:59.130Z,2.60
2023-03-06T00:08:28.894Z,2.40
2023-03-06T00:10:57.156Z,2.40
2023-03-06T00:13:25.532Z,2.30
2023-03-06T00:15:53.170Z,2.40
2023-03-06T00:18:21.037Z,2.40
2023-03-06T00:20:48.652Z,2.40
2023-03-06T00:23:15.946Z,2.30
2023-03-06T00:25:47.195Z,2.30
2023-03-06T00:28:15.943Z,2.30
2023-03-06T00:30:46.100Z,2.20
2023-03-06T00:33:13.942Z,2.10
2023-03-06T00:35:42.988Z,2.10
2023-03-06T00:38:12.981Z,2.20
2023-03-06T00:40:40.609Z,2.10
2023-03-06T00:43:11.718Z,2.10
2023-03-06T00:45:39.445Z,1.90
2023-03-06T00:48:07.534Z,2.10
2023-03-06T00:50:35.513Z,2.10
2023-03-06T00:53:02.977Z,2.30
2023-03-06T00:55:31.354Z,2.10
2023-03-06T00:57:58.801Z,2.00
2023-03-06T01:00:30.723Z,2.00
2023-03-06T01:03:01.061Z,2.40
2023-03-06T01:05:28.625Z,2.40
2023-03-06T01:07:56.040Z,2.00
2023-03-06T01:10:23.468Z,2.00
2023-03-06T01:12:50.924Z,2.30
2023-03-06T01:15:18.269Z,2.10
2023-03-06T01:17:46.301Z,2.10
2023-03-06T01:20:18.052Z,2.00
2023-03-06T01:22:45.665Z,2.20
2023-03-06T01:25:13.629Z,1.80
2023-03-06T01:27:41.421Z,2.20
2023-03-06T01:30:09.832Z,2.10
2023-03-06T01:32:37.258Z,1.90
2023-03-06T01:35:04.879Z,1.70
2023-03-06T01:37:32.942Z,2.10
2023-03-06T01:40:04.173Z,2.00
2023-03-06T01:42:32.248Z,2.10
2023-03-06T01:45:07.509Z,2.10
2023-03-06T01:47:34.794Z,1.90
2023-03-06T01:50:04.694Z,1.80
2023-03-06T01:52:59.102Z,2.10
2023-03-06T01:55:35.253Z,2.00
2023-03-06T01:58:09.010Z,1.90
2023-03-06T02:00:36.792Z,2.00
2023-03-06T02:03:12.263Z,2.10
2023-03-06T02:05:42.125Z,1.80
2023-03-06T02:08:13.106Z,1.80
2023-03-06T02:10:57.570Z,2.00
2023-03-06T02:13:26.417Z,1.70
2023-03-06T02:15:53.753Z,2.00
2023-03-06T02:18:21.146Z,2.10
2023-03-06T02:21:13.039Z,1.80
2023-03-06T02:24:27.852Z,1.70
2023-03-06T02:26:56.790Z,2.10
2023-03-06T02:29:29.268Z,1.90
2023-03-06T02:31:57.372Z,2.00
2023-03-06T02:34:25.001Z,1.90
2023-03-06T02:37:00.956Z,2.00
2023-03-06T02:39:33.932Z,1.80
2023-03-06T02:42:02.155Z,1.90
2023-03-06T02:44:30.872Z,1.90
2023-03-06T02:47:00.512Z,1.80
2023-03-06T02:49:27.977Z,1.80
2023-03-06T02:51:58.244Z,2.10
2023-03-06T02:54:26.021Z,1.80
2023-03-06T02:56:53.572Z,1.90
2023-03-06T02:59:21.023Z,1.80
2023-03-06T03:01:50.841Z,2.10
2023-03-06T03:04:18.197Z,2.00
2023-03-06T03:06:45.722Z,2.10
2023-03-06T03:09:13.615Z,2.50
2023-03-06T03:11:41.061Z,2.00
2023-03-06T03:14:11.751Z,1.80
2023-03-06T03:16:39.359Z,1.70
2023-03-06T03:19:07.000Z,1.90
2023-03-06T03:21:34.364Z,1.70
2023-03-06T03:24:01.985Z,1.70
2023-03-06T03:26:32.375Z,1.70
2023-03-06T03:28:59.886Z,1.80
2023-03-06T03:31:28.646Z,1.60
2023-03-06T03:33:56.270Z,1.80
2023-03-06T03:36:23.707Z,2.00
2023-03-06T03:38:52.163Z,1.70
2023-03-06T03:41:19.638Z,1.80
2023-03-06T03:43:47.303Z,1.50
2023-03-06T03:46:14.811Z,1.80
2023-03-06T03:48:42.465Z,1.60
2023-03-06T03:51:13.467Z,1.70
2023-03-06T03:53:43.175Z,1.70
2023-03-06T03:56:11.392Z,1.40
2023-03-06T03:58:38.911Z,1.50
2023-03-06T04:01:06.893Z,1.60
2023-03-06T04:03:34.565Z,1.60
2023-03-06T04:06:02.618Z,1.50
2023-03-06T04:08:30.215Z,1.60
2023-03-06T04:10:57.801Z,1.50
2023-03-06T04:13:25.448Z,1.50
2023-03-06T04:15:55.706Z,1.50
2023-03-06T04:18:23.982Z,1.60
2023-03-06T04:20:52.270Z,1.70
2023-03-06T04:23:20.033Z,1.10
2023-03-06T04:25:47.746Z,1.10
2023-03-06T04:28:15.581Z,1.60
2023-03-06T04:30:45.223Z,1.40
2023-03-06T04:33:12.904Z,1.50
2023-03-06T04:35:41.786Z,1.40
2023-03-06T04:38:11.911Z,1.30
2023-03-06T04:40:44.817Z,1.00
2023-03-06T04:43:12.700Z,1.00
2023-03-06T04:45:40.328Z,1.00
2023-03-06T04:48:08.010Z,0.80
2023-03-06T04:50:38.086Z,0.50
2023-03-06T04:53:05.594Z,0.90
2023-03-06T04:55:32.948Z,0.80
2023-03-06T04:58:03.371Z,0.80
2023-03-06T05:00:31.798Z,0.80
2023-03-06T05:03:01.912Z,0.80
2023-03-06T05:05:32.298Z,0.90
2023-03-06T05:07:59.766Z,0.80
2023-03-06T05:10:27.164Z,1.00
2023-03-06T05:12:57.182Z,0.90
2023-03-06T05:15:25.322Z,1.00
2023-03-06T05:18:08.226Z,0.90
2023-03-06T05:20:36.347Z,0.60
2023-03-06T05:23:04.060Z,1.00
2023-03-06T05:25:31.861Z,1.00
2023-03-06T05:27:59.352Z,1.20
2023-03-06T05:30:26.981Z,1.00
2023-03-06T05:32:54.499Z,2.10
2023-03-06T05:35:24.037Z,0.90
2023-03-06T05:37:53.806Z,1.60
2023-03-06T05:40:21.695Z,1.00
2023-03-06T05:42:49.248Z,0.90
2023-03-06T05:45:19.893Z,2.10
2023-03-06T05:47:47.409Z,0.50
2023-03-06T05:50:15.098Z,0.80
2023-03-06T05:52:43.318Z,0.90
2023-03-06T05:55:12.777Z,1.00
2023-03-06T05:57:40.244Z,0.90
2023-03-06T06:00:10.098Z,1.00
2023-03-06T06:02:38.002Z,1.10
2023-03-06T06:05:05.870Z,1.20
2023-03-06T06:07:37.111Z,1.10
2023-03-06T06:10:06.425Z,1.10
2023-03-06T06:12:34.648Z,1.00
2023-03-06T06:15:02.051Z,1.00
2023-03-06T06:17:29.542Z,1.10
2023-03-06T06:19:56.800Z,1.80
2023-03-06T06:22:25.731Z,1.40
2023-03-06T06:24:52.985Z,1.60
2023-03-06T06:27:20.988Z,1.50
2023-03-06T06:29:52.458Z,1.20
2023-03-06T06:32:19.877Z,1.50
2023-03-06T06:34:47.111Z,1.50
2023-03-06T06:37:15.960Z,1.60
2023-03-06T06:39:43.279Z,1.40
2023-03-06T06:42:38.965Z,2.00
2023-03-06T06:45:02.528Z,2.10
2023-03-06T06:47:30.085Z,2.10
2023-03-06T06:49:57.941Z,2.60
2023-03-06T06:52:26.030Z,2.90
2023-03-06T06:54:53.796Z,3.00
2023-03-06T06:57:21.929Z,2.60
2023-03-06T06:59:50.691Z,2.50
2023-03-06T07:02:19.784Z,2.40
2023-03-06T07:05:02.612Z,2.70
2023-03-06T07:07:35.304Z,2.50
2023-03-06T07:10:11.788Z,2.60
2023-03-06T07:12:39.240Z,2.50
2023-03-06T07:15:08.222Z,2.80
2023-03-06T07:17:35.682Z,2.60
2023-03-06T07:20:03.971Z,2.90
2023-03-06T07:22:44.755Z,3.00
2023-03-06T07:25:14.517Z,2.80
2023-03-06T07:27:41.966Z,2.70
2023-03-06T07:30:13.309Z,2.80
2023-03-06T07:32:40.952Z,2.60
2023-03-06T07:35:20.543Z,2.70
2023-03-06T07:37:51.776Z,3.10
2023-03-06T07:40:20.060Z,2.90
2023-03-06T07:42:47.819Z,2.90
2023-03-06T07:45:15.490Z,3.00
2023-03-06T07:47:43.098Z,3.10
2023-03-06T07:50:11.701Z,3.10
2023-03-06T07:52:42.159Z,2.70
2023-03-06T07:55:13.657Z,2.90
2023-03-06T07:57:41.436Z,2.80
2023-03-06T08:00:14.341Z,3.00
2023-03-06T08:02:43.464Z,3.00
2023-03-06T08:05:15.628Z,2.90
2023-03-06T08:07:45.487Z,3.10
2023-03-06T08:10:16.380Z,3.20
2023-03-06T08:12:44.380Z,3.20
2023-03-06T08:15:13.250Z,3.30
2023-03-06T08:17:43.722Z,3.30
2023-03-06T08:20:12.047Z,3.20
2023-03-06T08:22:39.520Z,3.20
2023-03-06T08:25:08.278Z,3.20
2023-03-06T08:27:36.399Z,3.50
2023-03-06T08:30:13.170Z,3.40
2023-03-06T08:32:40.518Z,3.40
2023-03-06T08:35:08.815Z,3.30
2023-03-06T08:37:36.391Z,3.60
2023-03-06T08:40:04.862Z,3.70
2023-03-06T08:42:34.860Z,3.90
2023-03-06T08:45:02.413Z,4.00
2023-03-06T08:47:31.823Z,4.00
2023-03-06T08:50:00.575Z,4.00
2023-03-06T08:52:32.792Z,4.30
2023-03-06T08:55:03.716Z,4.40
2023-03-06T08:57:31.310Z,4.50
2023-03-06T08:59:58.731Z,4.70
2023-03-06T09:02:28.542Z,5.00
2023-03-06T09:04:56.306Z,4.60
2023-03-06T09:07:23.811Z,4.70
2023-03-06T09:09:51.193Z,4.70
2023-03-06T09:12:20.116Z,4.80
2023-03-06T09:14:50.837Z,4.90
2023-03-06T09:17:18.314Z,5.10
2023-03-06T09:19:46.120Z,5.20
2023-03-06T09:22:14.878Z,5.40
2023-03-06T09:24:42.472Z,5.70
2023-03-06T09:27:09.862Z,5.90
2023-03-06T09:29:37.093Z,5.90
2023-03-06T09:32:04.803Z,5.50
2023-03-06T09:34:32.293Z,5.60
2023-03-06T09:37:02.380Z,7.00
2023-03-06T09:39:29.910Z,5.60
2023-03-06T09:41:58.616Z,6.00
2023-03-06T09:44:32.190Z,5.90
2023-03-06T09:47:43.702Z,5.70
2023-03-06T09:50:17.237Z,5.80
2023-03-06T09:53:32.968Z,6.10
2023-03-06T09:56:15.208Z,5.80
2023-03-06T09:58:51.584Z,5.90
2023-03-06T10:01:35.379Z,6.20
2023-03-06T10:04:36.466Z,6.30
2023-03-06T10:07:24.005Z,6.10
2023-03-06T10:10:18.481Z,6.00
2023-03-06T10:13:02.853Z,5.70
2023-03-06T10:15:39.517Z,5.90
2023-03-06T10:18:07.042Z,6.10
2023-03-06T10:20:49.945Z,6.00
2023-03-06T10:23:55.086Z,5.90
2023-03-06T10:26:35.779Z,5.90
2023-03-06T10:29:13.002Z,5.60
2023-03-06T10:31:49.677Z,6.10
2023-03-06T10:34:28.749Z,6.10
2023-03-06T10:37:03.256Z,6.00
2023-03-06T10:39:30.759Z,6.10
2023-03-06T10:41:58.434Z,6.20
2023-03-06T10:44:26.014Z,5.90
2023-03-06T10:46:54.663Z,5.80
2023-03-06T10:49:30.243Z,5.70
2023-03-06T10:52:04.198Z,5.70
2023-03-06T10:54:44.634Z,5.40
2023-03-06T10:57:32.065Z,5.60
2023-03-06T11:00:06.540Z,5.30
2023-03-06T11:02:41.279Z,5.50
2023-03-06T11:05:22.005Z,5.40
2023-03-06T11:08:00.584Z,5.30
2023-03-06T11:10:31.415Z,5.30
2023-03-06T11:13:06.298Z,5.50
2023-03-06T11:15:34.802Z,5.40
2023-03-06T11:18:24.631Z,5.40
2023-03-06T11:20:55.821Z,5.20
2023-03-06T11:23:45.841Z,5.20
2023-03-06T11:26:16.312Z,5.10
2023-03-06T11:28:55.452Z,5.20
2023-03-06T11:31:32.700Z,5.10
2023-03-06T11:34:12.291Z,5.10
2023-03-06T11:36:48.140Z,5.10
2023-03-06T11:39:33.252Z,5.20
2023-03-06T11:42:32.954Z,5.30
2023-03-06T11:45:32.067Z,5.30
2023-03-06T11:48:15.639Z,5.00
2023-03-06T11:50:52.850Z,5.60
2023-03-06T11:53:27.775Z,5.60
2023-03-06T11:56:00.975Z,5.30
2023-03-06T11:58:59.011Z,5.40
2023-03-06T12:02:04.359Z,5.50
2023-03-06T12:04:59.822Z,5.20
2023-03-06T12:07:49.838Z,5.20
2023-03-06T12:10:53.034Z,5.20
2023-03-06T12:13:41.454Z,5.00
2023-03-06T12:16:36.115Z,5.20
2023-03-06T12:20:14.200Z,5.20
2023-03-06T12:22:57.863Z,5.20
2023-03-06T12:25:42.795Z,5.40
2023-03-06T12:28:24.841Z,5.60
2023-03-06T12:31:28.199Z,5.40
2023-03-06T12:34:36.610Z,5.60
2023-03-06T12:37:22.585Z,5.60
2023-03-06T12:39:56.124Z,5.50
2023-03-06T12:42:38.289Z,5.40
2023-03-06T12:45:20.722Z,5.20
2023-03-06T12:47:51.842Z,5.40
2023-03-06T12:50:26.604Z,5.40
2023-03-06T12:53:03.341Z,5.20
2023-03-06T12:55:44.187Z,5.20
2023-03-06T12:58:33.051Z,5.60
2023-03-06T13:01:49.303Z,5.50
2023-03-06T13:04:50.930Z,5.30
2023-03-06T13:07:40.218Z,5.40
2023-03-06T13:10:32.402Z,5.40
2023-03-06T13:13:05.176Z,5.70
2023-03-06T13:16:05.055Z,5.70
2023-03-06T13:18:35.480Z,5.50
2023-03-06T13:21:04.518Z,5.60
2023-03-06T13:23:42.816Z,5.50
2023-03-06T13:26:26.860Z,5.40
2023-03-06T13:28:58.147Z,5.40
2023-03-06T13:31:34.338Z,5.70
2023-03-06T13:34:05.478Z,5.60
2023-03-06T13:36:39.909Z,5.50
2023-03-06T13:39:13.081Z,5.50
2023-03-06T13:41:59.620Z,5.20
2023-03-06T13:44:26.992Z,5.40
2023-03-06T13:47:03.973Z,2.50
2023-03-06T13:49:33.315Z,5.40
2023-03-06T13:52:29.485Z,5.60
2023-03-06T13:55:10.871Z,5.40
2023-03-06T13:58:02.916Z,5.30
2023-03-06T14:00:57.787Z,5.20
2023-03-06T14:04:02.242Z,5.10
2023-03-06T14:07:11.354Z,5.20
2023-03-06T14:09:58.025Z,5.20
2023-03-06T14:12:36.794Z,5.40
2023-03-06T14:15:42.161Z,5.10
2023-03-06T14:18:24.027Z,5.10
2023-03-06T14:21:00.826Z,5.10
2023-03-06T14:23:42.677Z,4.90
2023-03-06T14:26:24.406Z,5.20
2023-03-06T14:29:03.316Z,5.10
2023-03-06T14:31:40.770Z,5.00
2023-03-06T14:34:20.183Z,5.00
2023-03-06T14:36:52.285Z,5.10
2023-03-06T14:39:38.361Z,4.80
2023-03-06T14:42:25.798Z,5.10
2023-03-06T14:45:18.746Z,5.20
2023-03-06T14:47:54.689Z,5.10
2023-03-06T14:50:24.359Z,5.10
2023-03-06T14:53:04.972Z,4.90
2023-03-06T14:55:36.435Z,5.10
2023-03-06T14:58:17.741Z,5.10
2023-03-06T15:03:51.071Z,5.00
2023-03-06T15:06:31.637Z,4.90
2023-03-06T15:09:40.793Z,4.80
2023-03-06T15:12:31.427Z,5.00
2023-03-06T15:15:37.207Z,4.90
2023-03-06T15:18:34.086Z,4.90
2023-03-06T15:21:21.866Z,4.80
2023-03-06T15:23:53.601Z,4.60
2023-03-06T15:26:55.527Z,4.50
2023-03-06T15:29:27.514Z,4.50
2023-03-06T15:32:30.280Z,4.70
2023-03-06T15:35:55.279Z,4.50
2023-03-06T15:38:46.012Z,4.60
2023-03-06T15:41:38.243Z,4.60
2023-03-06T15:44:14.970Z,4.40
2023-03-06T15:46:43.739Z,4.50
2023-03-06T15:49:17.900Z,5.80
2023-03-06T15:51:54.586Z,4.30
2023-03-06T15:54:22.358Z,4.40
2023-03-06T15:56:50.767Z,4.50
2023-03-06T15:59:26.723Z,4.40
2023-03-06T16:01:58.612Z,4.40
2023-03-06T16:04:28.248Z,4.40
2023-03-06T16:06:58.362Z,4.40
2023-03-06T16:09:29.476Z,4.50
2023-03-06T16:11:59.626Z,4.20
2023-03-06T16:14:32.141Z,4.20
2023-03-06T16:16:59.840Z,4.20
2023-03-06T16:19:30.274Z,4.30
2023-03-06T16:22:04.460Z,4.30
2023-03-06T16:24:42.251Z,4.20
2023-03-06T16:27:26.384Z,4.40
2023-03-06T16:29:55.018Z,4.30
2023-03-06T16:32:33.861Z,4.20
2023-03-06T16:35:01.611Z,4.20
2023-03-06T16:37:31.773Z,4.10
2023-03-06T16:40:00.336Z,4.20
2023-03-06T16:42:31.004Z,4.30
2023-03-06T16:45:10.634Z,4.20
2023-03-06T16:47:41.427Z,4.10
2023-03-06T16:50:42.135Z,4.20
2023-03-06T16:53:12.052Z,4.30
2023-03-06T16:55:52.248Z,4.10
2023-03-06T16:58:19.786Z,4.10
2023-03-06T17:01:06.939Z,3.70
2023-03-06T17:03:53.710Z,4.20
2023-03-06T17:06:23.432Z,4.00
2023-03-06T17:08:51.547Z,4.10
2023-03-06T17:11:21.406Z,4.00
2023-03-06T17:13:58.119Z,4.00
2023-03-06T17:16:49.809Z,3.90
2023-03-06T17:19:34.241Z,3.90
2023-03-06T17:22:06.063Z,3.90
2023-03-06T17:24:38.066Z,4.10
2023-03-06T17:27:05.827Z,4.20
2023-03-06T17:29:33.382Z,4.20
2023-03-06T17:32:01.154Z,3.90
2023-03-06T17:34:43.077Z,3.90
2023-03-06T17:37:12.357Z,3.70
2023-03-06T17:39:43.100Z,3.80
2023-03-06T17:42:12.054Z,3.70
2023-03-06T17:48:04.952Z,3.80
2023-03-06T18:56:35.325Z,3.50
2023-03-06T18:59:27.610Z,3.20
2023-03-06T19:02:01.614Z,3.50
2023-03-06T19:13:48.747Z,3.40
2023-03-06T19:16:52.454Z,3.50
2023-03-06T19:19:53.125Z,3.50
2023-03-06T19:29:39.425Z,3.40
2023-03-06T19:32:10.172Z,3.50
2023-03-06T19:34:40.327Z,3.40
2023-03-06T19:37:12.792Z,3.50
2023-03-06T19:39:44.403Z,3.50
2023-03-06T19:42:30.133Z,3.50
2023-03-06T19:45:15.044Z,3.50
2023-03-06T19:48:37.391Z,3.40
2023-03-06T19:51:27.637Z,3.50
2023-03-06T19:53:56.567Z,3.30
2023-03-06T19:56:52.616Z,3.40
2023-03-06T20:01:21.625Z,3.40
2023-03-06T20:03:09.227Z,3.40
2023-03-06T20:09:14.040Z,3.40
2023-03-06T20:12:28.567Z,3.40
2023-03-06T20:15:21.222Z,3.40
2023-03-06T20:22:43.120Z,3.30
2023-03-06T20:27:12.930Z,3.20
2023-03-06T20:29:28.241Z,3.40
2023-03-06T20:32:04.538Z,2.90
2023-03-06T20:34:34.778Z,3.10
2023-03-06T20:40:06.377Z,2.90
2023-03-06T20:42:34.154Z,2.90
2023-03-06T20:45:01.805Z,3.10
2023-03-06T20:47:32.095Z,2.90
2023-03-06T20:50:02.491Z,3.10
2023-03-06T20:52:33.217Z,2.60
2023-03-06T20:55:01.057Z,2.60
2023-03-06T20:57:28.665Z,2.60
2023-03-06T20:59:59.580Z,2.60
2023-03-06T21:02:27.236Z,2.60
2023-03-06T21:04:54.992Z,2.20
2023-03-06T21:07:23.258Z,2.40
2023-03-06T21:09:54.842Z,2.30
2023-03-06T21:12:23.907Z,2.20
2023-03-06T21:14:54.352Z,2.30
2023-03-06T21:17:26.857Z,2.20
2023-03-06T21:20:08.414Z,2.30
2023-03-06T21:22:36.258Z,2.20
2023-03-06T21:25:05.150Z,2.60
2023-03-06T21:27:32.750Z,2.30
2023-03-06T21:30:01.278Z,2.50
2023-03-06T21:32:33.715Z,2.20
2023-03-06T21:35:01.280Z,2.10
2023-03-06T21:37:30.139Z,2.20
2023-03-06T21:40:01.230Z,2.00
2023-03-06T21:42:29.452Z,2.00
2023-03-06T21:44:56.964Z,2.10
2023-03-06T21:47:24.826Z,1.90
2023-03-06T21:49:52.145Z,1.90
2023-03-06T21:52:21.023Z,2.00
2023-03-06T21:54:49.844Z,1.90
2023-03-06T21:57:17.346Z,1.60
2023-03-06T21:59:44.621Z,1.70
2023-03-06T22:02:12.163Z,1.60
2023-03-06T22:04:40.016Z,1.80
2023-03-06T22:07:07.684Z,1.60
2023-03-06T22:09:37.019Z,1.70
2023-03-06T22:12:05.336Z,1.60
2023-03-06T22:14:32.816Z,1.60
2023-03-06T22:17:00.525Z,1.70
2023-03-06T22:19:28.441Z,2.40
2023-03-06T22:21:55.931Z,1.70
2023-03-06T22:24:23.548Z,1.50
2023-03-06T22:26:50.853Z,1.40
2023-03-06T22:29:19.351Z,1.60
2023-03-06T22:31:46.935Z,1.50
2023-03-06T22:34:14.358Z,1.50
2023-03-06T22:36:42.248Z,1.60
2023-03-06T22:39:13.493Z,1.60
2023-03-06T22:41:41.110Z,1.60
2023-03-06T22:44:14.492Z,1.30
2023-03-06T22:46:45.841Z,1.60
2023-03-06T22:49:14.933Z,1.30
2023-03-06T22:51:43.312Z,1.40
2023-03-06T22:54:11.673Z,1.50
2023-03-06T22:56:39.328Z,1.30
2023-03-06T22:59:06.636Z,1.30
2023-03-06T23:01:35.822Z,1.10
2023-03-06T23:04:11.211Z,1.30
2023-03-06T23:06:43.032Z,1.20
2023-03-06T23:09:25.311Z,1.10
2023-03-06T23:12:15.054Z,1.40
2023-03-06T23:14:51.346Z,1.20
2023-03-06T23:17:19.138Z,1.10
2023-03-06T23:19:50.301Z,1.10
2023-03-06T23:22:17.854Z,0.70
2023-03-06T23:24:45.615Z,0.90
2023-03-06T23:27:13.008Z,0.90
2023-03-06T23:29:40.461Z,0.70
2023-03-06T23:32:08.193Z,0.80
2023-03-06T23:34:35.498Z,0.80
2023-03-06T23:37:02.884Z,0.70
2023-03-06T23:39:30.511Z,0.70
2023-03-06T23:41:57.811Z,0.40
2023-03-06T23:44:25.718Z,0.70
2023-03-06T23:46:53.308Z,0.50
2023-03-06T23:49:21.949Z,0.40
2023-03-06T23:51:49.832Z,0.60
2023-03-06T23:54:18.437Z,0.40
2023-03-06T23:56:46.101Z,0.40
2023-03-06T23:59:14.621Z,0.30
